Time;durP1;ratioP1;P1;durP2;ratioP2;P2;SDS_P1;SDS_P2;PMS_P1;PMS_P2;Temp;Humidity;BMP_temperature;BMP_pressure;BME280_temperature;BME280_humidity;BME280_pressure;Samples;Min_cycle;Max_cycle;Signal;HPM_P1;HPM_P2
2022/01/26 00:07:06;;;;;;;141.10;43.67;;;2.50;99.90;;;;;;5061846;28;20200;-65
2022/01/26 00:09:35;;;;;;;128.80;41.03;;;2.50;99.90;;;;;;5056516;28;20212;-65
2022/01/26 00:12:04;;;;;;;142.33;43.00;;;2.40;99.90;;;;;;5062368;28;20274;-65
2022/01/26 00:14:32;;;;;;;139.43;42.57;;;2.40;99.90;;;;;;5062743;28;20280;-65
2022/01/26 00:17:01;;;;;;;129.37;41.63;;;2.50;99.90;;;;;;5061579;28;20727;-64
2022/01/26 00:19:44;;;;;;;139.10;42.73;;;2.50;99.90;;;;;;5075558;28;20311;-65
2022/01/26 00:22:32;;;;;;;137.63;42.23;;;2.50;99.90;;;;;;5059665;28;20609;-65
2022/01/26 00:25:20;;;;;;;135.23;42.03;;;2.40;99.90;;;;;;5063310;28;20400;-65
2022/01/26 00:27:53;;;;;;;140.70;43.50;;;2.40;99.90;;;;;;5059012;28;20320;-65
2022/01/26 00:38:43;;;;;;;141.43;41.27;;;2.40;99.90;;;;;;5060499;28;20672;-65
2022/01/26 00:41:15;;;;;;;134.43;42.60;;;2.40;99.90;;;;;;5060218;28;20718;-65
2022/01/26 00:43:50;;;;;;;130.10;41.53;;;2.40;99.90;;;;;;5055925;28;20216;-65
2022/01/26 00:46:19;;;;;;;138.30;42.20;;;2.40;99.90;;;;;;5058812;28;20196;-65
2022/01/26 00:48:49;;;;;;;140.07;43.10;;;2.50;99.90;;;;;;5055416;28;20201;-65
2022/01/26 00:51:21;;;;;;;134.20;41.23;;;2.50;99.90;;;;;;5061004;28;20196;-65
2022/01/26 00:53:59;;;;;;;137.47;42.37;;;2.50;99.90;;;;;;5057373;28;20359;-65
2022/01/26 00:56:27;;;;;;;137.50;43.40;;;2.40;99.90;;;;;;5056394;28;20258;-65
2022/01/26 00:58:55;;;;;;;138.77;43.53;;;2.40;99.90;;;;;;5061242;28;20438;-65
2022/01/26 01:01:24;;;;;;;136.40;42.33;;;2.40;99.90;;;;;;5060631;28;20236;-65
2022/01/26 01:03:52;;;;;;;139.00;41.87;;;2.40;99.90;;;;;;5065582;28;20192;-65
2022/01/26 01:06:25;;;;;;;138.50;41.70;;;2.40;99.90;;;;;;5058494;28;20207;-65
2022/01/26 01:08:57;;;;;;;140.53;42.60;;;2.40;99.90;;;;;;5061522;28;20285;-65
2022/01/26 01:11:26;;;;;;;139.40;42.00;;;2.40;99.90;;;;;;5058451;28;20544;-65
2022/01/26 01:13:55;;;;;;;136.07;42.07;;;2.40;99.90;;;;;;5060730;28;20220;-65
2022/01/26 01:16:24;;;;;;;150.50;43.00;;;2.40;99.90;;;;;;5055695;28;20235;-65
2022/01/26 01:19:01;;;;;;;134.53;41.13;;;2.40;99.90;;;;;;5064531;28;20199;-65
2022/01/26 01:29:58;;;;;;;128.03;39.73;;;2.50;99.90;;;;;;5033237;28;20224;-65
2022/01/26 01:32:34;;;;;;;143.37;42.97;;;2.50;99.90;;;;;;5056435;28;20206;-65
2022/01/26 01:35:07;;;;;;;137.33;42.47;;;2.50;99.90;;;;;;5061080;28;20638;-65
2022/01/26 01:37:36;;;;;;;146.77;43.40;;;2.50;99.90;;;;;;5057922;28;20192;-65
2022/01/26 01:40:07;;;;;;;130.83;39.90;;;2.50;99.90;;;;;;5061385;28;20311;-65
2022/01/26 01:42:36;;;;;;;142.97;42.57;;;2.50;99.90;;;;;;5056196;28;20261;-64
2022/01/26 01:45:05;;;;;;;150.47;44.77;;;2.50;99.90;;;;;;5052581;28;20208;-65
2022/01/26 01:47:34;;;;;;;149.90;43.20;;;2.50;99.90;;;;;;5061508;28;20205;-65
2022/01/26 01:50:07;;;;;;;145.90;42.83;;;2.50;99.90;;;;;;5063122;28;20204;-65
2022/01/26 01:52:36;;;;;;;145.67;43.37;;;2.50;99.90;;;;;;5059056;28;20199;-65
2022/01/26 01:55:07;;;;;;;156.00;43.50;;;2.40;99.90;;;;;;5059277;28;20192;-65
2022/01/26 01:57:35;;;;;;;145.13;42.20;;;2.40;99.90;;;;;;5059958;28;20243;-65
2022/01/26 02:00:06;;;;;;;147.87;41.90;;;2.50;99.90;;;;;;5061337;28;20737;-65
2022/01/26 02:02:35;;;;;;;156.97;43.90;;;2.40;99.90;;;;;;5058709;28;20287;-65
2022/01/26 02:05:04;;;;;;;151.97;42.53;;;2.40;99.90;;;;;;5065636;28;20189;-65
2022/01/26 02:07:32;;;;;;;162.27;45.50;;;2.40;99.90;;;;;;5063095;28;20242;-65
2022/01/26 02:10:02;;;;;;;150.90;43.87;;;2.50;99.90;;;;;;5056036;28;20195;-65
2022/01/26 02:12:35;;;;;;;154.77;42.93;;;2.50;99.90;;;;;;5061399;28;20195;-65
2022/01/26 02:15:10;;;;;;;145.50;40.67;;;2.60;99.90;;;;;;5052277;28;20199;-65
2022/01/26 02:18:03;;;;;;;139.00;38.77;;;2.50;99.90;;;;;;5054004;28;20217;-65
2022/01/26 02:20:59;;;;;;;130.43;36.63;;;2.40;99.90;;;;;;5055151;28;20229;-65
2022/01/26 02:51:50;;;;;;;109.00;30.93;;;2.10;99.90;;;;;;5056407;28;20195;-65
2022/01/26 02:57:28;;;;;;;113.43;31.27;;;2.10;99.90;;;;;;5051954;28;20227;-65
2022/01/26 03:02:48;;;;;;;109.50;31.67;;;2.00;99.90;;;;;;5051124;28;20286;-64
2022/01/26 03:05:20;;;;;;;110.67;32.07;;;2.00;99.90;;;;;;5062850;28;20203;-65
2022/01/26 03:07:53;;;;;;;111.43;30.97;;;2.00;99.90;;;;;;5054383;28;20258;-64
2022/01/26 03:10:31;;;;;;;116.37;32.10;;;2.00;99.90;;;;;;5051115;28;20228;-65
2022/01/26 03:13:05;;;;;;;116.67;32.00;;;1.90;99.90;;;;;;5054796;28;20696;-65
2022/01/26 03:15:38;;;;;;;105.10;30.33;;;1.90;99.90;;;;;;5057624;28;20760;-65
2022/01/26 03:20:54;;;;;;;110.30;32.00;;;1.90;99.90;;;;;;5052606;28;20623;-65
2022/01/26 03:29:11;;;;;;;108.73;32.23;;;1.90;99.90;;;;;;5060614;28;20231;-65
2022/01/26 03:34:26;;;;;;;112.80;32.77;;;1.90;99.90;;;;;;5055520;28;20249;-65
2022/01/26 03:36:57;;;;;;;118.00;34.10;;;1.90;99.90;;;;;;5058899;28;20298;-65
2022/01/26 03:39:28;;;;;;;111.33;32.67;;;1.90;99.90;;;;;;5055354;28;20192;-65
2022/01/26 03:42:05;;;;;;;123.13;35.00;;;1.90;99.90;;;;;;5050528;28;20900;-65
2022/01/26 03:44:33;;;;;;;116.63;33.60;;;1.80;99.90;;;;;;5060542;28;20219;-65
2022/01/26 03:47:03;;;;;;;120.13;34.40;;;1.80;99.90;;;;;;5062149;28;20304;-65
2022/01/26 03:49:31;;;;;;;119.17;34.77;;;1.80;99.90;;;;;;5062115;28;20235;-65
2022/01/26 03:51:59;;;;;;;119.87;33.07;;;1.80;99.90;;;;;;5054672;28;20204;-65
2022/01/26 03:54:28;;;;;;;119.33;34.33;;;1.80;99.90;;;;;;5078627;28;20249;-65
2022/01/26 03:56:58;;;;;;;119.53;34.07;;;1.80;99.90;;;;;;5055527;28;21451;-65
2022/01/26 03:59:26;;;;;;;132.97;35.30;;;1.80;99.90;;;;;;5055888;28;20294;-65
2022/01/26 04:01:55;;;;;;;118.13;34.80;;;1.80;99.90;;;;;;5051760;28;20215;-65
2022/01/26 04:04:23;;;;;;;130.47;37.13;;;1.80;99.90;;;;;;5054404;28;20207;-65
2022/01/26 04:06:52;;;;;;;122.40;34.37;;;1.80;99.90;;;;;;5056453;28;20193;-65
2022/01/26 04:09:21;;;;;;;121.73;35.50;;;1.80;99.90;;;;;;5058158;28;20211;-65
2022/01/26 04:11:50;;;;;;;121.03;36.80;;;1.80;99.90;;;;;;5062768;28;20204;-65
2022/01/26 04:14:25;;;;;;;125.30;36.70;;;1.80;99.90;;;;;;5059220;28;20208;-65
2022/01/26 04:16:56;;;;;;;129.43;36.87;;;1.80;99.90;;;;;;5062753;28;20220;-65
2022/01/26 04:19:27;;;;;;;133.70;38.73;;;1.70;99.90;;;;;;5064809;28;20312;-65
2022/01/26 04:22:06;;;;;;;129.70;35.80;;;1.80;99.90;;;;;;5062386;28;20200;-64
2022/01/26 04:24:39;;;;;;;124.57;36.93;;;1.80;99.90;;;;;;5061502;28;20287;-65
2022/01/26 04:27:16;;;;;;;122.87;35.63;;;1.80;99.90;;;;;;5063159;28;20226;-65
2022/01/26 04:29:47;;;;;;;129.60;37.47;;;1.80;99.90;;;;;;5055457;28;20254;-65
2022/01/26 04:32:17;;;;;;;128.40;37.93;;;1.90;99.90;;;;;;5061553;28;20646;-65
2022/01/26 04:34:47;;;;;;;133.23;36.70;;;1.80;99.90;;;;;;5065833;28;20224;-65
2022/01/26 04:37:28;;;;;;;129.83;37.27;;;1.90;99.90;;;;;;5059574;28;20255;-65
2022/01/26 04:40:00;;;;;;;137.97;39.47;;;1.80;99.90;;;;;;5056843;28;20227;-65
2022/01/26 04:42:37;;;;;;;134.10;38.93;;;1.80;99.90;;;;;;5060447;28;20305;-65
2022/01/26 04:45:10;;;;;;;144.50;38.80;;;1.80;99.90;;;;;;5055133;28;20224;-65
2022/01/26 04:47:39;;;;;;;148.43;42.17;;;1.80;99.90;;;;;;5059129;28;20231;-65
2022/01/26 04:50:10;;;;;;;136.83;38.90;;;1.80;99.90;;;;;;5064108;28;20192;-65
2022/01/26 04:52:39;;;;;;;147.33;40.27;;;1.80;99.90;;;;;;5057023;28;20193;-65
2022/01/26 04:55:09;;;;;;;144.80;40.03;;;1.80;99.90;;;;;;5066184;28;20192;-65
2022/01/26 04:57:37;;;;;;;136.43;40.23;;;1.90;99.90;;;;;;5061733;28;20342;-65
2022/01/26 05:00:09;;;;;;;136.23;40.93;;;1.90;99.90;;;;;;5061150;28;20189;-65
2022/01/26 05:02:38;;;;;;;145.33;39.57;;;1.90;99.90;;;;;;5059234;28;20272;-65
2022/01/26 05:05:07;;;;;;;142.07;40.53;;;1.90;99.90;;;;;;5058292;28;20184;-65
2022/01/26 05:07:36;;;;;;;151.87;42.13;;;1.90;99.90;;;;;;5059530;28;20267;-65
2022/01/26 05:10:05;;;;;;;149.93;43.23;;;1.90;99.90;;;;;;5053641;28;20189;-65
2022/01/26 05:12:35;;;;;;;134.17;39.77;;;1.90;99.90;;;;;;5061521;28;20227;-65
2022/01/26 05:15:04;;;;;;;142.43;40.13;;;1.90;99.90;;;;;;5063192;28;20234;-64
2022/01/26 05:17:35;;;;;;;146.07;40.83;;;1.90;99.90;;;;;;5060351;28;20220;-65
2022/01/26 05:20:05;;;;;;;165.10;43.30;;;2.00;99.90;;;;;;5058273;28;20189;-65
2022/01/26 05:22:34;;;;;;;136.60;39.77;;;1.90;99.90;;;;;;5053544;28;20189;-65
2022/01/26 05:25:02;;;;;;;151.37;40.77;;;1.90;99.90;;;;;;5057644;28;20259;-65
2022/01/26 05:27:31;;;;;;;158.97;41.87;;;2.00;99.90;;;;;;5058889;28;20200;-65
2022/01/26 05:30:00;;;;;;;142.70;41.33;;;1.90;99.90;;;;;;5062000;28;20200;-65
2022/01/26 05:32:28;;;;;;;144.37;41.93;;;1.90;99.90;;;;;;5057694;28;20253;-65
2022/01/26 05:34:58;;;;;;;141.07;41.40;;;1.90;99.90;;;;;;5058433;28;20199;-65
2022/01/26 05:37:27;;;;;;;149.50;42.60;;;1.90;99.90;;;;;;5056978;28;20582;-65
2022/01/26 05:39:55;;;;;;;161.77;42.57;;;2.00;99.90;;;;;;5053120;28;20220;-65
2022/01/26 05:42:24;;;;;;;138.30;40.17;;;2.00;99.90;;;;;;5057446;28;20228;-65
2022/01/26 05:44:58;;;;;;;152.87;42.33;;;2.00;99.90;;;;;;5056772;28;20571;-65
2022/01/26 05:47:26;;;;;;;154.47;43.60;;;2.00;99.90;;;;;;5064121;28;20606;-65
2022/01/26 05:49:55;;;;;;;143.60;42.83;;;2.00;99.90;;;;;;5051992;28;20445;-65
2022/01/26 05:52:25;;;;;;;137.90;41.50;;;2.00;99.90;;;;;;5058527;28;20283;-65
2022/01/26 05:54:54;;;;;;;139.67;41.07;;;2.00;99.90;;;;;;5055520;28;20287;-65
2022/01/26 05:57:23;;;;;;;145.77;41.10;;;2.00;99.90;;;;;;5056114;28;20195;-65
2022/01/26 05:59:53;;;;;;;136.13;39.10;;;2.00;99.90;;;;;;5058050;28;20200;-65
2022/01/26 06:02:22;;;;;;;135.37;39.70;;;2.00;99.90;;;;;;5058618;28;20192;-65
2022/01/26 06:04:50;;;;;;;143.00;40.90;;;2.00;99.90;;;;;;5054620;28;20673;-65
2022/01/26 06:07:19;;;;;;;147.30;41.23;;;2.00;99.90;;;;;;5053631;28;20239;-65
2022/01/26 06:09:48;;;;;;;139.50;41.10;;;2.00;99.90;;;;;;5055605;28;20283;-65
2022/01/26 06:12:17;;;;;;;132.80;40.90;;;2.00;99.90;;;;;;5052233;28;20205;-65
2022/01/26 06:14:45;;;;;;;138.83;42.00;;;2.00;99.90;;;;;;5060513;28;20235;-65
2022/01/26 06:17:13;;;;;;;138.60;40.23;;;2.00;99.90;;;;;;5054500;28;20216;-65
2022/01/26 06:19:42;;;;;;;137.07;39.97;;;2.00;99.90;;;;;;5055290;28;20312;-64
2022/01/26 06:22:10;;;;;;;127.03;39.33;;;2.00;99.90;;;;;;5063037;28;20554;-65
2022/01/26 06:24:38;;;;;;;126.00;40.00;;;2.00;99.90;;;;;;5061431;28;20689;-64
2022/01/26 06:27:09;;;;;;;143.10;42.70;;;2.00;99.90;;;;;;5057324;28;20200;-65
2022/01/26 06:29:37;;;;;;;140.80;41.27;;;2.00;99.90;;;;;;5059354;28;20568;-66
2022/01/26 06:32:07;;;;;;;133.37;39.30;;;2.00;99.90;;;;;;5052904;28;20216;-65
2022/01/26 06:34:39;;;;;;;131.40;41.90;;;2.10;99.90;;;;;;5055385;28;20553;-64
2022/01/26 06:37:07;;;;;;;146.03;40.80;;;2.10;99.90;;;;;;5056062;28;20199;-64
2022/01/26 06:39:36;;;;;;;129.83;38.93;;;2.10;99.90;;;;;;5058694;28;20311;-64
2022/01/26 06:42:11;;;;;;;130.57;39.93;;;2.00;99.90;;;;;;5062991;28;20285;-64
2022/01/26 06:44:51;;;;;;;128.43;39.70;;;2.10;99.90;;;;;;5053933;28;20720;-64
2022/01/26 06:47:35;;;;;;;131.27;41.00;;;2.10;99.90;;;;;;5058581;28;20662;-67
2022/01/26 06:50:05;;;;;;;121.53;40.43;;;2.10;99.90;;;;;;5053759;28;20220;-64
2022/01/26 06:52:34;;;;;;;127.57;40.60;;;2.10;99.90;;;;;;5053434;28;20557;-64
2022/01/26 06:55:04;;;;;;;135.93;40.23;;;2.10;99.90;;;;;;5056559;28;20683;-64
2022/01/26 06:57:32;;;;;;;145.47;42.23;;;2.00;99.90;;;;;;5059701;28;20192;-64
2022/01/26 07:00:03;;;;;;;138.60;41.73;;;2.00;99.90;;;;;;5062889;28;20511;-64
2022/01/26 07:02:32;;;;;;;125.50;39.50;;;2.00;99.90;;;;;;5056783;28;20678;-64
2022/01/26 07:05:00;;;;;;;139.10;40.33;;;2.00;99.90;;;;;;5064329;28;20665;-66
2022/01/26 07:07:29;;;;;;;134.43;41.97;;;2.00;99.90;;;;;;5058150;28;20283;-65
2022/01/26 07:09:57;;;;;;;138.50;40.40;;;2.10;99.90;;;;;;5060353;28;20262;-65
2022/01/26 07:12:26;;;;;;;130.90;41.03;;;2.10;99.90;;;;;;5058038;28;20303;-65
2022/01/26 07:23:18;;;;;;;127.47;39.00;;;2.10;99.90;;;;;;5054070;28;20219;-65
2022/01/26 07:25:47;;;;;;;130.77;39.57;;;2.10;99.90;;;;;;5057712;28;20196;-65
2022/01/26 07:28:16;;;;;;;128.70;39.70;;;2.10;99.90;;;;;;5055825;28;20685;-65
2022/01/26 07:30:45;;;;;;;125.27;39.33;;;2.10;99.90;;;;;;5059932;28;20542;-65
2022/01/26 07:33:14;;;;;;;140.47;43.80;;;2.10;99.90;;;;;;5051229;28;20207;-64
2022/01/26 07:35:43;;;;;;;153.13;47.23;;;2.10;99.90;;;;;;5054577;28;20287;-65
2022/01/26 07:38:11;;;;;;;138.90;43.57;;;2.10;99.90;;;;;;5060166;28;20419;-66
2022/01/26 07:40:41;;;;;;;131.27;42.00;;;2.10;99.90;;;;;;5064025;28;20673;-65
2022/01/26 07:43:10;;;;;;;128.07;40.00;;;2.10;99.90;;;;;;5065598;28;20200;-66
2022/01/26 07:45:39;;;;;;;142.40;41.67;;;2.10;99.90;;;;;;5063444;28;20661;-65
2022/01/26 07:48:07;;;;;;;140.33;42.50;;;2.10;99.90;;;;;;5059068;28;20538;-65
2022/01/26 07:50:37;;;;;;;130.47;41.20;;;2.10;99.90;;;;;;5058049;28;20635;-65
2022/01/26 07:53:12;;;;;;;133.70;41.13;;;2.20;99.90;;;;;;5064668;28;20628;-66
2022/01/26 07:55:40;;;;;;;138.60;43.97;;;2.20;99.90;;;;;;5060979;28;20657;-65
2022/01/26 07:58:10;;;;;;;137.03;41.63;;;2.30;99.90;;;;;;5064266;28;20694;-65
2022/01/26 08:00:39;;;;;;;140.50;42.83;;;2.30;99.90;;;;;;5055232;28;20230;-65
2022/01/26 08:03:07;;;;;;;142.03;44.30;;;2.30;99.90;;;;;;5055629;28;20659;-65
2022/01/26 08:05:38;;;;;;;144.87;42.20;;;2.30;99.90;;;;;;5083284;28;20238;-65
2022/01/26 08:08:06;;;;;;;139.30;44.13;;;2.30;99.90;;;;;;5057954;28;20188;-65
2022/01/26 08:10:36;;;;;;;141.00;44.33;;;2.40;99.90;;;;;;5064695;28;20688;-65
2022/01/26 08:13:05;;;;;;;140.60;44.53;;;2.30;99.90;;;;;;5066584;28;20549;-65
2022/01/26 08:15:33;;;;;;;146.50;43.70;;;2.30;99.90;;;;;;5063745;28;20651;-65
2022/01/26 08:18:06;;;;;;;136.17;44.80;;;2.40;99.90;;;;;;5046056;28;20180;-65
2022/01/26 08:20:42;;;;;;;126.30;42.90;;;2.40;99.90;;;;;;5067015;28;20832;-64
2022/01/26 08:23:10;;;;;;;120.43;41.57;;;2.50;99.90;;;;;;5061534;28;20208;-65
2022/01/26 08:25:38;;;;;;;121.60;42.30;;;2.40;99.90;;;;;;5062830;28;20717;-64
2022/01/26 08:28:12;;;;;;;126.53;42.80;;;2.50;99.90;;;;;;5063592;28;20860;-65
2022/01/26 08:30:41;;;;;;;126.27;42.20;;;2.40;99.90;;;;;;5056970;28;20833;-65
2022/01/26 08:33:10;;;;;;;122.43;39.97;;;2.40;99.90;;;;;;5080425;28;20200;-65
2022/01/26 08:35:41;;;;;;;129.70;42.87;;;2.50;99.90;;;;;;5062387;28;20206;-67
2022/01/26 08:38:10;;;;;;;121.87;42.13;;;2.50;99.90;;;;;;5058566;28;21001;-65
2022/01/26 08:40:39;;;;;;;119.37;40.57;;;2.50;99.90;;;;;;5063434;28;20223;-65
2022/01/26 08:43:07;;;;;;;122.30;42.27;;;2.50;99.90;;;;;;5061862;28;20662;-65
2022/01/26 08:45:36;;;;;;;120.43;40.40;;;2.50;99.90;;;;;;5057445;28;20567;-65
2022/01/26 08:48:05;;;;;;;110.20;40.80;;;2.50;99.90;;;;;;5065322;28;20253;-65
2022/01/26 08:50:37;;;;;;;114.87;40.63;;;2.60;99.90;;;;;;5041176;28;20654;-65
2022/01/26 08:53:07;;;;;;;107.40;39.30;;;2.60;99.90;;;;;;5063633;28;20200;-65
2022/01/26 08:55:36;;;;;;;106.33;37.97;;;2.60;99.90;;;;;;5059323;28;20552;-65
2022/01/26 08:58:05;;;;;;;95.00;35.73;;;2.60;99.90;;;;;;5056777;28;20212;-65
2022/01/26 09:00:37;;;;;;;89.67;34.70;;;2.60;99.90;;;;;;5059065;28;20205;-65
2022/01/26 09:03:16;;;;;;;94.50;34.50;;;2.70;99.90;;;;;;5056070;28;20188;-65
2022/01/26 09:05:45;;;;;;;91.80;35.40;;;2.70;99.90;;;;;;5061918;28;20803;-65
2022/01/26 09:08:17;;;;;;;87.57;34.10;;;2.70;99.90;;;;;;5061440;28;20200;-65
2022/01/26 09:10:47;;;;;;;82.77;33.37;;;2.70;99.90;;;;;;5059136;28;20563;-65
2022/01/26 09:13:17;;;;;;;86.23;33.00;;;2.70;99.90;;;;;;5059633;28;20219;-65
2022/01/26 09:15:45;;;;;;;79.53;32.37;;;2.70;99.90;;;;;;5055165;28;20850;-65
2022/01/26 09:18:19;;;;;;;82.27;32.67;;;2.80;99.90;;;;;;5057301;28;20577;-64
2022/01/26 09:20:48;;;;;;;86.27;34.33;;;2.80;99.90;;;;;;5035383;28;20227;-64
2022/01/26 09:23:18;;;;;;;82.97;32.27;;;2.80;99.90;;;;;;5060684;28;20585;-65
2022/01/26 09:25:47;;;;;;;79.53;32.63;;;2.80;99.90;;;;;;5062185;28;20756;-64
2022/01/26 09:28:15;;;;;;;82.17;32.60;;;2.80;99.90;;;;;;5037635;28;20253;-65
2022/01/26 09:30:44;;;;;;;79.70;32.47;;;2.80;99.90;;;;;;5055966;28;20207;-66
2022/01/26 09:33:13;;;;;;;100.57;43.73;;;2.80;99.90;;;;;;5057179;28;20597;-64
2022/01/26 09:35:41;;;;;;;87.90;35.17;;;2.80;99.90;;;;;;5062009;28;20193;-64
2022/01/26 09:38:15;;;;;;;88.00;33.50;;;2.90;99.90;;;;;;5040860;28;20250;-65
2022/01/26 09:40:46;;;;;;;90.20;33.97;;;2.90;99.90;;;;;;5057378;28;20286;-64
2022/01/26 09:43:17;;;;;;;130.43;58.73;;;2.90;99.90;;;;;;5065158;28;20223;-64
2022/01/26 09:45:46;;;;;;;91.70;36.73;;;2.90;99.90;;;;;;5058466;28;20514;-64
2022/01/26 09:48:17;;;;;;;103.50;43.07;;;2.90;99.90;;;;;;5057056;28;20242;-64
2022/01/26 09:50:54;;;;;;;99.50;43.73;;;2.90;99.90;;;;;;5060891;28;20204;-64
2022/01/26 09:53:28;;;;;;;101.83;40.17;;;3.00;99.90;;;;;;5061403;28;20666;-64
2022/01/26 09:55:58;;;;;;;93.10;38.70;;;3.00;99.90;;;;;;5056958;28;20195;-64
2022/01/26 09:58:28;;;;;;;94.57;38.40;;;3.00;99.90;;;;;;5062699;28;20201;-67
2022/01/26 10:00:58;;;;;;;118.70;46.93;;;3.00;99.90;;;;;;5064142;28;20616;-66
2022/01/26 10:03:31;;;;;;;98.80;41.10;;;3.00;99.90;;;;;;5060804;28;20196;-66
2022/01/26 10:06:01;;;;;;;97.20;37.97;;;3.10;99.90;;;;;;5053517;28;20630;-66
2022/01/26 10:19:58;;;;;;;98.90;39.67;;;3.10;99.90;;;;;;5067715;28;20217;-65
2022/01/26 10:22:32;;;;;;;108.77;41.43;;;3.10;99.90;;;;;;5046240;28;20200;-65
2022/01/26 10:25:10;;;;;;;96.73;40.70;;;3.10;99.90;;;;;;5060220;28;20204;-66
2022/01/26 10:28:00;;;;;;;98.10;40.77;;;3.10;99.90;;;;;;5058793;28;20203;-64
2022/01/26 10:30:28;;;;;;;112.37;42.57;;;3.20;99.90;;;;;;5072299;28;20197;-65
2022/01/26 10:32:57;;;;;;;109.00;42.83;;;3.20;99.90;;;;;;5059152;28;20246;-65
2022/01/26 10:35:28;;;;;;;102.40;40.40;;;3.10;99.90;;;;;;5057368;28;20208;-67
2022/01/26 10:37:57;;;;;;;102.77;42.53;;;3.10;99.90;;;;;;5059980;28;20208;-65
2022/01/26 10:40:28;;;;;;;98.87;40.63;;;3.20;99.90;;;;;;5060922;28;20232;-66
2022/01/26 10:43:02;;;;;;;113.17;46.07;;;3.20;99.90;;;;;;5058819;28;20238;-65
2022/01/26 10:45:36;;;;;;;121.90;52.10;;;3.20;99.90;;;;;;5064484;28;20278;-66
2022/01/26 10:48:15;;;;;;;94.43;38.80;;;3.20;99.90;;;;;;5057147;28;20205;-65
2022/01/26 10:51:09;;;;;;;86.23;36.30;;;3.20;99.90;;;;;;5061551;28;20196;-66
2022/01/26 10:53:40;;;;;;;99.13;40.10;;;3.20;99.90;;;;;;5057371;28;20570;-67
2022/01/26 10:56:10;;;;;;;102.37;43.77;;;3.20;99.90;;;;;;5057909;28;20670;-66
2022/01/26 10:58:41;;;;;;;92.50;39.10;;;3.30;99.90;;;;;;5058857;28;20202;-66
2022/01/26 11:01:09;;;;;;;97.13;37.60;;;3.30;99.90;;;;;;5060937;28;20208;-64
2022/01/26 11:03:39;;;;;;;106.03;45.43;;;3.20;99.90;;;;;;5055763;28;20212;-65
2022/01/26 11:06:09;;;;;;;106.60;40.57;;;3.20;99.90;;;;;;5062074;28;20214;-65
2022/01/26 11:08:40;;;;;;;86.40;37.37;;;3.20;99.90;;;;;;5061598;28;20196;-65
2022/01/26 11:11:19;;;;;;;90.67;36.13;;;3.20;99.90;;;;;;5054446;28;20764;-65
2022/01/26 11:13:49;;;;;;;93.27;38.33;;;3.20;99.90;;;;;;5064862;28;20274;-65
2022/01/26 11:16:33;;;;;;;92.37;37.17;;;3.30;99.90;;;;;;5061124;28;20221;-65
2022/01/26 11:19:01;;;;;;;90.00;36.13;;;3.30;99.90;;;;;;5066968;28;20210;-65
2022/01/26 11:21:33;;;;;;;92.97;37.63;;;3.30;99.90;;;;;;5065872;28;20216;-66
2022/01/26 11:24:08;;;;;;;91.43;37.00;;;3.30;99.90;;;;;;5061086;28;20774;-66
2022/01/26 11:26:38;;;;;;;85.77;34.70;;;3.30;99.90;;;;;;5064710;28;20640;-66
2022/01/26 11:29:19;;;;;;;92.00;37.27;;;3.30;99.90;;;;;;5061963;28;20735;-66
2022/01/26 11:31:48;;;;;;;90.53;37.47;;;3.30;99.90;;;;;;5064361;28;20192;-66
2022/01/26 11:34:19;;;;;;;91.70;36.53;;;3.50;99.90;;;;;;5064026;28;20200;-66
2022/01/26 11:36:49;;;;;;;92.37;38.13;;;3.40;99.90;;;;;;5062307;28;20204;-64
2022/01/26 11:42:26;;;;;;;89.43;38.30;;;3.40;99.90;;;;;;5058602;28;20221;-65
2022/01/26 11:45:08;;;;;;;90.13;35.83;;;3.50;99.90;;;;;;5058359;28;20653;-65
2022/01/26 11:47:39;;;;;;;84.47;34.50;;;3.50;99.90;;;;;;5062054;28;20206;-66
2022/01/26 11:50:14;;;;;;;86.23;35.17;;;3.50;99.90;;;;;;5062412;28;20220;-65
2022/01/26 11:52:46;;;;;;;93.90;37.40;;;3.50;99.90;;;;;;5062257;28;20592;-65
2022/01/26 11:55:30;;;;;;;92.67;35.87;;;3.40;99.90;;;;;;5077704;28;20649;-65
2022/01/26 11:58:14;;;;;;;94.90;35.17;;;3.40;99.90;;;;;;5063969;28;20238;-65
2022/01/26 12:00:53;;;;;;;93.17;36.43;;;3.30;99.90;;;;;;5056679;28;20196;-65
2022/01/26 12:03:28;;;;;;;91.53;36.63;;;3.40;99.90;;;;;;5065606;28;20203;-65
2022/01/26 12:05:58;;;;;;;101.67;40.80;;;3.50;99.90;;;;;;5066311;28;20241;-65
2022/01/26 12:08:33;;;;;;;93.23;37.53;;;3.40;99.90;;;;;;5060742;28;20206;-65
2022/01/26 12:11:03;;;;;;;89.67;33.67;;;3.50;99.90;;;;;;5061803;28;21530;-65
2022/01/26 12:13:32;;;;;;;90.07;36.57;;;3.40;99.90;;;;;;5057678;28;20216;-65
2022/01/26 12:16:09;;;;;;;82.20;33.07;;;3.50;99.90;;;;;;5060593;28;20207;-64
2022/01/26 12:18:44;;;;;;;96.47;35.87;;;3.40;99.90;;;;;;5063900;28;20242;-65
2022/01/26 12:35:43;;;;;;;100.20;38.43;;;3.50;99.90;;;;;;5025482;28;20270;-65
2022/01/26 12:38:21;;;;;;;108.90;38.30;;;3.60;99.90;;;;;;5058057;28;20204;-65
2022/01/26 12:43:55;;;;;;;107.37;40.50;;;3.60;99.90;;;;;;5022792;28;20255;-65
2022/01/26 12:46:25;;;;;;;103.67;36.33;;;3.60;99.90;;;;;;5000014;28;20248;-65
2022/01/26 12:48:57;;;;;;;112.10;38.77;;;3.50;99.90;;;;;;5041994;28;20932;-65
2022/01/26 12:51:27;;;;;;;105.47;38.77;;;3.50;99.90;;;;;;5062417;28;20245;-65
2022/01/26 12:53:58;;;;;;;111.50;39.60;;;3.60;99.90;;;;;;5061080;28;20600;-65
2022/01/26 12:56:29;;;;;;;111.77;39.03;;;3.50;99.90;;;;;;5060925;28;20211;-65
2022/01/26 12:59:02;;;;;;;123.33;46.27;;;3.50;99.90;;;;;;5059262;28;20843;-64
2022/01/26 13:01:31;;;;;;;110.03;38.83;;;3.50;99.90;;;;;;5057349;28;20226;-65
2022/01/26 13:04:03;;;;;;;108.30;37.53;;;3.40;99.90;;;;;;5063860;28;20196;-65
2022/01/26 13:06:35;;;;;;;102.83;37.30;;;3.50;99.90;;;;;;5057121;28;20643;-64
2022/01/26 13:09:19;;;;;;;105.03;37.50;;;3.50;99.90;;;;;;5060069;28;20203;-65
2022/01/26 13:11:49;;;;;;;101.40;35.63;;;3.50;99.90;;;;;;5063423;28;20208;-64
2022/01/26 13:14:23;;;;;;;104.90;36.80;;;3.50;99.90;;;;;;5065506;28;20214;-66
2022/01/26 13:17:05;;;;;;;101.00;35.80;;;3.50;99.90;;;;;;5057428;28;20192;-66
2022/01/26 13:19:47;;;;;;;104.27;36.20;;;3.50;99.90;;;;;;5037183;28;20275;-66
2022/01/26 13:25:29;;;;;;;106.60;36.87;;;3.50;99.90;;;;;;5057602;28;20281;-64
2022/01/26 13:28:16;;;;;;;93.80;36.03;;;3.50;99.90;;;;;;5059226;28;20218;-65
2022/01/26 13:31:25;;;;;;;102.00;36.43;;;3.60;99.90;;;;;;5061148;28;20192;-65
2022/01/26 13:37:00;;;;;;;105.73;36.30;;;3.60;99.90;;;;;;5058211;28;20669;-65
2022/01/26 13:39:38;;;;;;;94.23;35.97;;;3.60;99.90;;;;;;5063635;28;21115;-65
2022/01/26 13:42:37;;;;;;;110.23;36.73;;;3.60;99.90;;;;;;5056407;28;20235;-65
2022/01/26 13:48:15;;;;;;;105.73;38.27;;;3.50;99.90;;;;;;5059419;28;20223;-65
2022/01/26 13:50:49;;;;;;;95.63;36.37;;;3.50;99.90;;;;;;5038772;28;20961;-64
2022/01/26 13:53:22;;;;;;;108.93;40.67;;;3.50;99.90;;;;;;5077403;28;20199;-65
2022/01/26 13:56:04;;;;;;;105.93;44.63;;;3.50;99.90;;;;;;5056230;28;20199;-65
2022/01/26 13:58:56;;;;;;;101.93;40.43;;;3.60;99.90;;;;;;5057956;28;20279;-65
2022/01/26 14:01:25;;;;;;;117.10;44.70;;;3.50;99.90;;;;;;5062252;28;20200;-65
2022/01/26 14:03:58;;;;;;;103.57;39.13;;;3.40;99.90;;;;;;5057284;28;20189;-65
2022/01/26 14:06:26;;;;;;;109.20;43.60;;;3.50;99.90;;;;;;5054008;28;20236;-65
2022/01/26 14:08:56;;;;;;;94.30;38.50;;;3.50;99.90;;;;;;5061225;28;20838;-64
2022/01/26 14:11:25;;;;;;;81.67;34.53;;;3.50;99.90;;;;;;5054844;28;20200;-65
2022/01/26 14:13:56;;;;;;;87.10;36.77;;;3.50;99.90;;;;;;5052225;28;20193;-66
2022/01/26 14:16:26;;;;;;;81.53;36.50;;;3.60;99.90;;;;;;5058494;28;20201;-65
2022/01/26 14:19:10;;;;;;;89.63;39.67;;;3.50;99.90;;;;;;5063427;28;20249;-65
2022/01/26 14:22:16;;;;;;;85.57;37.40;;;3.50;99.90;;;;;;5053625;28;20200;-65
2022/01/26 14:25:04;;;;;;;89.67;37.27;;;3.50;99.90;;;;;;5055474;28;20204;-65
2022/01/26 14:27:40;;;;;;;92.37;36.00;;;3.50;99.90;;;;;;5056908;28;20197;-65
2022/01/26 14:30:24;;;;;;;92.37;37.37;;;3.50;99.90;;;;;;5056854;28;20665;-65
2022/01/26 14:33:11;;;;;;;81.77;34.53;;;3.50;99.90;;;;;;5059265;28;20192;-65
2022/01/26 14:36:04;;;;;;;76.90;30.83;;;3.60;99.90;;;;;;5065121;28;20239;-63
2022/01/26 14:55:41;;;;;;;77.43;30.80;;;3.50;99.90;;;;;;5056959;28;20200;-66
2022/01/26 15:08:40;;;;;;;80.40;33.07;;;3.50;99.90;;;;;;5061614;28;20200;-65
2022/01/26 15:10:20;;;;;;;70.13;30.23;;;3.50;99.90;;;;;;5056597;28;20196;-65
2022/01/26 15:35:24;;;;;;;77.43;32.33;;;3.50;99.90;;;;;;5058075;28;20192;-65
2022/01/26 15:40:57;;;;;;;77.53;34.23;;;3.50;99.90;;;;;;5057499;28;20238;-65
2022/01/26 15:49:30;;;;;;;72.47;31.37;;;3.40;99.90;;;;;;5064816;28;20208;-65
2022/01/26 15:52:17;;;;;;;81.00;31.10;;;3.40;99.90;;;;;;5061572;28;20208;-65